sensor_id;sensor_type;location;lat;lon;timestamp;P1;P2;P0
21358;PMS7003;13506;50.852;20.632;2023-03-08T00:00:35;33.80;30.40;18.00
21358;PMS7003;13506;50.852;20.632;2023-03-08T00:03:15;33.40;27.00;15.80
21358;PMS7003;13506;50.852;20.632;2023-03-08T00:05:43;24.40;22.20;13.80
21358;PMS7003;13506;50.852;20.632;2023-03-08T00:08:11;31.80;28.20;17.00
21358;PMS7003;13506;50.852;20.632;2023-03-08T00:10:39;38.40;34.60;19.40
21358;PMS7003;13506;50.852;20.632;2023-03-08T00:13:08;38.20;34.00;23.80
21358;PMS7003;13506;50.852;20.632;2023-03-08T00:15:36;30.40;26.80;15.20
21358;PMS7003;13506;50.852;20.632;2023-03-08T00:18:05;28.80;24.20;14.20
21358;PMS7003;13506;50.852;20.632;2023-03-08T00:20:34;32.20;24.40;14.60
21358;PMS7003;13506;50.852;20.632;2023-03-08T00:23:02;32.00;28.20;17.20
21358;PMS7003;13506;50.852;20.632;2023-03-08T00:25:30;27.80;25.20;12.80
21358;PMS7003;13506;50.852;20.632;2023-03-08T00:27:58;33.80;29.20;15.40
21358;PMS7003;13506;50.852;20.632;2023-03-08T00:30:28;35.00;26.60;14.60
21358;PMS7003;13506;50.852;20.632;2023-03-08T00:32:56;37.60;29.00;16.40
21358;PMS7003;13506;50.852;20.632;2023-03-08T00:35:24;31.60;30.40;15.80
21358;PMS7003;13506;50.852;20.632;2023-03-08T00:37:53;33.60;26.60;15.80
21358;PMS7003;13506;50.852;20.632;2023-03-08T00:40:21;29.60;26.20;14.80
21358;PMS7003;13506;50.852;20.632;2023-03-08T00:42:49;24.40;23.20;14.40
21358;PMS7003;13506;50.852;20.632;2023-03-08T00:45:17;36.40;33.20;18.80
21358;PMS7003;13506;50.852;20.632;2023-03-08T00:47:45;32.60;29.00;17.00
21358;PMS7003;13506;50.852;20.632;2023-03-08T00:50:12;34.80;31.80;17.60
21358;PMS7003;13506;50.852;20.632;2023-03-08T00:52:41;32.20;28.20;14.80
21358;PMS7003;13506;50.852;20.632;2023-03-08T00:55:13;26.00;24.00;14.00
21358;PMS7003;13506;50.852;20.632;2023-03-08T00:57:41;39.40;33.20;19.00
21358;PMS7003;13506;50.852;20.632;2023-03-08T01:00:09;29.80;24.80;15.20
21358;PMS7003;13506;50.852;20.632;2023-03-08T01:02:39;38.40;32.40;16.20
21358;PMS7003;13506;50.852;20.632;2023-03-08T01:05:07;37.80;31.40;17.80
21358;PMS7003;13506;50.852;20.632;2023-03-08T01:07:36;34.40;28.20;15.80
21358;PMS7003;13506;50.852;20.632;2023-03-08T01:10:05;36.80;26.60;16.80
21358;PMS7003;13506;50.852;20.632;2023-03-08T01:12:37;30.20;25.00;14.40
21358;PMS7003;13506;50.852;20.632;2023-03-08T01:15:05;35.20;30.40;15.80
21358;PMS7003;13506;50.852;20.632;2023-03-08T01:17:34;26.60;24.20;14.20
21358;PMS7003;13506;50.852;20.632;2023-03-08T01:20:03;30.60;24.80;14.20
21358;PMS7003;13506;50.852;20.632;2023-03-08T01:22:33;28.40;27.60;15.20
21358;PMS7003;13506;50.852;20.632;2023-03-08T01:25:00;33.80;26.60;12.00
21358;PMS7003;13506;50.852;20.632;2023-03-08T01:27:29;24.80;24.80;14.20
21358;PMS7003;13506;50.852;20.632;2023-03-08T01:29:58;37.20;30.20;17.00
21358;PMS7003;13506;50.852;20.632;2023-03-08T01:32:26;31.20;29.40;17.00
21358;PMS7003;13506;50.852;20.632;2023-03-08T01:34:54;36.40;30.40;19.00
21358;PMS7003;13506;50.852;20.632;2023-03-08T01:37:27;30.80;22.80;12.00
21358;PMS7003;13506;50.852;20.632;2023-03-08T01:39:55;33.20;28.00;14.00
21358;PMS7003;13506;50.852;20.632;2023-03-08T01:42:24;29.20;26.00;17.00
21358;PMS7003;13506;50.852;20.632;2023-03-08T01:44:53;31.80;31.80;16.00
21358;PMS7003;13506;50.852;20.632;2023-03-08T01:47:24;28.40;26.60;12.40
21358;PMS7003;13506;50.852;20.632;2023-03-08T01:50:11;23.60;23.60;13.80
21358;PMS7003;13506;50.852;20.632;2023-03-08T01:52:40;34.80;25.00;14.00
21358;PMS7003;13506;50.852;20.632;2023-03-08T01:55:14;33.80;27.00;16.00
21358;PMS7003;13506;50.852;20.632;2023-03-08T01:57:46;24.00;23.00;13.40
21358;PMS7003;13506;50.852;20.632;2023-03-08T02:00:20;29.00;26.80;16.20
21358;PMS7003;13506;50.852;20.632;2023-03-08T02:02:53;36.20;27.60;15.60
21358;PMS7003;13506;50.852;20.632;2023-03-08T02:05:24;25.00;22.60;12.00
21358;PMS7003;13506;50.852;20.632;2023-03-08T02:07:59;19.40;18.80;11.00
21358;PMS7003;13506;50.852;20.632;2023-03-08T02:10:31;30.60;26.20;12.00
21358;PMS7003;13506;50.852;20.632;2023-03-08T02:13:00;24.60;20.60;10.60
21358;PMS7003;13506;50.852;20.632;2023-03-08T02:15:29;26.60;25.00;11.60
21358;PMS7003;13506;50.852;20.632;2023-03-08T02:17:58;19.20;19.20;11.20
21358;PMS7003;13506;50.852;20.632;2023-03-08T02:20:27;20.00;19.40;12.80
21358;PMS7003;13506;50.852;20.632;2023-03-08T02:23:07;27.80;21.20;11.80
21358;PMS7003;13506;50.852;20.632;2023-03-08T02:25:36;25.20;22.80;12.00
21358;PMS7003;13506;50.852;20.632;2023-03-08T02:28:07;28.20;23.80;12.20
21358;PMS7003;13506;50.852;20.632;2023-03-08T02:30:36;29.60;27.60;11.80
21358;PMS7003;13506;50.852;20.632;2023-03-08T02:33:04;18.00;17.00;9.20
21358;PMS7003;13506;50.852;20.632;2023-03-08T02:35:32;18.20;16.00;9.00
21358;PMS7003;13506;50.852;20.632;2023-03-08T02:38:03;17.60;16.80;7.80
21358;PMS7003;13506;50.852;20.632;2023-03-08T02:40:32;17.60;17.60;9.20
21358;PMS7003;13506;50.852;20.632;2023-03-08T02:43:01;20.80;17.60;9.80
21358;PMS7003;13506;50.852;20.632;2023-03-08T02:45:29;20.40;19.20;8.80
21358;PMS7003;13506;50.852;20.632;2023-03-08T02:47:58;22.40;22.40;12.40
21358;PMS7003;13506;50.852;20.632;2023-03-08T02:50:27;19.00;16.80;8.00
21358;PMS7003;13506;50.852;20.632;2023-03-08T02:52:56;19.80;18.80;11.00
21358;PMS7003;13506;50.852;20.632;2023-03-08T02:55:24;19.20;16.60;9.00
21358;PMS7003;13506;50.852;20.632;2023-03-08T02:57:54;21.40;20.40;14.00
21358;PMS7003;13506;50.852;20.632;2023-03-08T03:00:22;22.80;16.80;8.60
21358;PMS7003;13506;50.852;20.632;2023-03-08T03:02:51;25.20;19.00;10.60
21358;PMS7003;13506;50.852;20.632;2023-03-08T03:05:19;25.20;17.60;11.00
21358;PMS7003;13506;50.852;20.632;2023-03-08T03:07:47;20.40;17.60;9.40
21358;PMS7003;13506;50.852;20.632;2023-03-08T03:10:18;21.80;17.60;8.60
21358;PMS7003;13506;50.852;20.632;2023-03-08T03:12:46;28.00;20.60;10.80
21358;PMS7003;13506;50.852;20.632;2023-03-08T03:15:19;24.00;20.80;12.20
21358;PMS7003;13506;50.852;20.632;2023-03-08T03:17:51;22.40;18.40;9.00
21358;PMS7003;13506;50.852;20.632;2023-03-08T03:20:19;24.20;23.60;12.80
21358;PMS7003;13506;50.852;20.632;2023-03-08T03:22:47;21.60;20.40;11.00
21358;PMS7003;13506;50.852;20.632;2023-03-08T03:25:17;23.20;18.60;11.00
21358;PMS7003;13506;50.852;20.632;2023-03-08T03:27:47;19.20;15.40;10.20
21358;PMS7003;13506;50.852;20.632;2023-03-08T03:32:46;22.00;20.40;11.00
21358;PMS7003;13506;50.852;20.632;2023-03-08T03:35:18;26.80;20.00;11.00
21358;PMS7003;13506;50.852;20.632;2023-03-08T03:37:46;26.60;19.20;10.20
21358;PMS7003;13506;50.852;20.632;2023-03-08T03:40:14;23.80;22.40;12.00
21358;PMS7003;13506;50.852;20.632;2023-03-08T03:42:47;23.00;18.40;10.80
21358;PMS7003;13506;50.852;20.632;2023-03-08T03:45:15;24.20;19.40;11.40
21358;PMS7003;13506;50.852;20.632;2023-03-08T03:47:43;24.40;22.20;11.80
21358;PMS7003;13506;50.852;20.632;2023-03-08T03:50:13;24.40;20.00;10.60
21358;PMS7003;13506;50.852;20.632;2023-03-08T03:52:51;20.80;18.80;7.80
21358;PMS7003;13506;50.852;20.632;2023-03-08T03:55:19;20.20;15.80;8.60
21358;PMS7003;13506;50.852;20.632;2023-03-08T03:57:48;23.00;20.40;11.40
21358;PMS7003;13506;50.852;20.632;2023-03-08T04:00:17;18.40;17.80;9.00
21358;PMS7003;13506;50.852;20.632;2023-03-08T04:02:56;17.60;15.80;8.20
21358;PMS7003;13506;50.852;20.632;2023-03-08T04:05:25;21.40;15.80;7.00
21358;PMS7003;13506;50.852;20.632;2023-03-08T04:07:53;25.60;19.00;10.20
21358;PMS7003;13506;50.852;20.632;2023-03-08T04:10:26;16.60;14.00;6.00
21358;PMS7003;13506;50.852;20.632;2023-03-08T04:12:55;25.20;18.60;10.60
21358;PMS7003;13506;50.852;20.632;2023-03-08T04:15:23;16.80;15.60;7.80
21358;PMS7003;13506;50.852;20.632;2023-03-08T04:17:52;18.80;15.40;7.80
21358;PMS7003;13506;50.852;20.632;2023-03-08T04:20:24;29.60;22.60;9.80
21358;PMS7003;13506;50.852;20.632;2023-03-08T04:22:57;17.80;15.00;7.80
21358;PMS7003;13506;50.852;20.632;2023-03-08T04:25:30;18.20;15.40;6.20
21358;PMS7003;13506;50.852;20.632;2023-03-08T04:28:00;17.80;15.20;8.40
21358;PMS7003;13506;50.852;20.632;2023-03-08T04:30:27;21.20;16.80;7.40
21358;PMS7003;13506;50.852;20.632;2023-03-08T04:32:57;17.60;16.00;7.60
21358;PMS7003;13506;50.852;20.632;2023-03-08T04:35:34;21.00;18.60;10.20
21358;PMS7003;13506;50.852;20.632;2023-03-08T04:38:03;19.60;17.20;8.00
21358;PMS7003;13506;50.852;20.632;2023-03-08T04:40:32;16.40;16.40;7.80
21358;PMS7003;13506;50.852;20.632;2023-03-08T04:43:20;22.80;17.20;8.20
21358;PMS7003;13506;50.852;20.632;2023-03-08T04:45:49;16.80;14.20;7.00
21358;PMS7003;13506;50.852;20.632;2023-03-08T04:48:17;21.20;15.60;8.80
21358;PMS7003;13506;50.852;20.632;2023-03-08T04:50:52;17.00;16.20;9.40
21358;PMS7003;13506;50.852;20.632;2023-03-08T04:53:21;23.80;21.00;11.60
21358;PMS7003;13506;50.852;20.632;2023-03-08T04:55:50;23.80;17.80;8.20
21358;PMS7003;13506;50.852;20.632;2023-03-08T04:58:18;17.00;16.20;8.80
21358;PMS7003;13506;50.852;20.632;2023-03-08T05:00:47;23.20;18.20;9.00
21358;PMS7003;13506;50.852;20.632;2023-03-08T05:03:16;23.60;16.40;9.00
21358;PMS7003;13506;50.852;20.632;2023-03-08T05:05:44;20.60;18.40;8.80
21358;PMS7003;13506;50.852;20.632;2023-03-08T05:08:15;16.20;15.20;8.80
21358;PMS7003;13506;50.852;20.632;2023-03-08T05:10:47;15.60;11.80;6.00
21358;PMS7003;13506;50.852;20.632;2023-03-08T05:13:16;14.00;9.40;4.00
21358;PMS7003;13506;50.852;20.632;2023-03-08T05:15:44;8.60;8.00;3.00
21358;PMS7003;13506;50.852;20.632;2023-03-08T05:18:12;8.60;8.60;3.00
21358;PMS7003;13506;50.852;20.632;2023-03-08T05:20:40;10.20;8.00;3.00
21358;PMS7003;13506;50.852;20.632;2023-03-08T05:23:09;8.00;8.00;3.00
21358;PMS7003;13506;50.852;20.632;2023-03-08T05:25:41;6.40;6.00;1.00
21358;PMS7003;13506;50.852;20.632;2023-03-08T05:28:10;9.80;8.00;3.00
21358;PMS7003;13506;50.852;20.632;2023-03-08T05:30:41;11.00;11.00;4.20
21358;PMS7003;13506;50.852;20.632;2023-03-08T05:33:10;9.00;8.00;3.40
21358;PMS7003;13506;50.852;20.632;2023-03-08T05:35:39;9.20;8.00;4.00
21358;PMS7003;13506;50.852;20.632;2023-03-08T05:38:08;11.00;8.80;4.00
21358;PMS7003;13506;50.852;20.632;2023-03-08T05:40:36;15.60;11.80;3.80
21358;PMS7003;13506;50.852;20.632;2023-03-08T05:43:07;11.00;8.00;2.20
21358;PMS7003;13506;50.852;20.632;2023-03-08T05:45:35;7.60;7.20;2.60
21358;PMS7003;13506;50.852;20.632;2023-03-08T05:48:04;9.40;8.40;3.00
21358;PMS7003;13506;50.852;20.632;2023-03-08T05:50:35;9.20;8.20;3.20
21358;PMS7003;13506;50.852;20.632;2023-03-08T05:53:04;13.20;9.60;4.80
21358;PMS7003;13506;50.852;20.632;2023-03-08T05:55:32;8.60;6.40;1.00
21358;PMS7003;13506;50.852;20.632;2023-03-08T05:58:00;12.60;12.60;5.00
21358;PMS7003;13506;50.852;20.632;2023-03-08T06:00:30;9.20;8.00;2.20
21358;PMS7003;13506;50.852;20.632;2023-03-08T06:02:58;6.80;6.80;3.00
21358;PMS7003;13506;50.852;20.632;2023-03-08T06:05:28;6.40;6.40;3.20
21358;PMS7003;13506;50.852;20.632;2023-03-08T06:07:57;10.60;10.60;3.00
21358;PMS7003;13506;50.852;20.632;2023-03-08T06:10:25;11.40;9.60;3.20
21358;PMS7003;13506;50.852;20.632;2023-03-08T06:12:54;11.00;9.80;3.00
21358;PMS7003;13506;50.852;20.632;2023-03-08T06:15:23;15.40;13.80;6.40
21358;PMS7003;13506;50.852;20.632;2023-03-08T06:17:53;9.60;9.60;4.80
21358;PMS7003;13506;50.852;20.632;2023-03-08T06:20:24;11.80;10.40;4.80
21358;PMS7003;13506;50.852;20.632;2023-03-08T06:22:54;7.00;6.00;1.00
21358;PMS7003;13506;50.852;20.632;2023-03-08T06:25:22;7.00;6.00;1.00
21358;PMS7003;13506;50.852;20.632;2023-03-08T06:27:51;8.00;6.00;3.00
21358;PMS7003;13506;50.852;20.632;2023-03-08T06:30:26;9.80;6.40;3.00
21358;PMS7003;13506;50.852;20.632;2023-03-08T06:32:56;9.00;6.00;2.20
21358;PMS7003;13506;50.852;20.632;2023-03-08T06:35:24;10.80;9.20;3.00
21358;PMS7003;13506;50.852;20.632;2023-03-08T06:37:56;8.60;6.40;3.40
21358;PMS7003;13506;50.852;20.632;2023-03-08T06:40:24;6.00;4.50;2.00
21358;PMS7003;13506;50.852;20.632;2023-03-08T06:42:52;6.00;4.80;1.00
21358;PMS7003;13506;50.852;20.632;2023-03-08T06:45:20;5.50;5.50;2.00
21358;PMS7003;13506;50.852;20.632;2023-03-08T06:47:48;9.20;7.20;1.40
21358;PMS7003;13506;50.852;20.632;2023-03-08T06:50:18;7.60;7.60;3.00
21358;PMS7003;13506;50.852;20.632;2023-03-08T06:52:48;7.20;7.20;2.20
21358;PMS7003;13506;50.852;20.632;2023-03-08T06:55:23;6.00;6.00;3.00
21358;PMS7003;13506;50.852;20.632;2023-03-08T06:57:51;6.40;6.00;3.00
21358;PMS7003;13506;50.852;20.632;2023-03-08T07:00:20;4.00;4.00;1.00
21358;PMS7003;13506;50.852;20.632;2023-03-08T07:02:49;4.80;4.80;1.00
21358;PMS7003;13506;50.852;20.632;2023-03-08T07:05:19;7.60;5.00;1.00
21358;PMS7003;13506;50.852;20.632;2023-03-08T07:07:47;8.00;8.00;3.00
21358;PMS7003;13506;50.852;20.632;2023-03-08T07:10:16;8.00;6.00;1.80
21358;PMS7003;13506;50.852;20.632;2023-03-08T07:12:45;6.20;6.20;1.00
21358;PMS7003;13506;50.852;20.632;2023-03-08T07:15:16;6.80;4.00;1.00
21358;PMS7003;13506;50.852;20.632;2023-03-08T07:17:46;11.40;8.00;3.60
21358;PMS7003;13506;50.852;20.632;2023-03-08T07:20:16;9.40;8.00;2.60
21358;PMS7003;13506;50.852;20.632;2023-03-08T07:22:47;7.80;7.40;2.60
21358;PMS7003;13506;50.852;20.632;2023-03-08T07:25:16;6.80;6.80;3.00
21358;PMS7003;13506;50.852;20.632;2023-03-08T07:27:46;5.40;5.40;2.20
21358;PMS7003;13506;50.852;20.632;2023-03-08T07:30:14;6.00;6.00;3.00
21358;PMS7003;13506;50.852;20.632;2023-03-08T07:32:43;6.80;6.80;1.00
21358;PMS7003;13506;50.852;20.632;2023-03-08T07:35:11;5.60;5.40;1.00
21358;PMS7003;13506;50.852;20.632;2023-03-08T07:37:44;7.60;7.60;3.00
21358;PMS7003;13506;50.852;20.632;2023-03-08T07:40:14;6.00;6.00;1.00
21358;PMS7003;13506;50.852;20.632;2023-03-08T07:42:43;5.60;5.60;1.00
21358;PMS7003;13506;50.852;20.632;2023-03-08T07:45:28;4.00;4.00;1.00
21358;PMS7003;13506;50.852;20.632;2023-03-08T07:47:56;6.40;6.00;1.00
21358;PMS7003;13506;50.852;20.632;2023-03-08T07:50:24;8.40;5.80;2.20
21358;PMS7003;13506;50.852;20.632;2023-03-08T07:52:54;6.40;6.40;3.00
21358;PMS7003;13506;50.852;20.632;2023-03-08T07:55:21;7.00;6.40;1.00
21358;PMS7003;13506;50.852;20.632;2023-03-08T07:57:50;4.50;4.50;1.00
21358;PMS7003;13506;50.852;20.632;2023-03-08T08:00:18;5.20;4.40;1.00
21358;PMS7003;13506;50.852;20.632;2023-03-08T08:02:47;9.80;6.00;1.00
21358;PMS7003;13506;50.852;20.632;2023-03-08T08:05:18;6.40;6.40;2.60
21358;PMS7003;13506;50.852;20.632;2023-03-08T08:07:47;6.40;6.00;1.40
21358;PMS7003;13506;50.852;20.632;2023-03-08T08:10:17;8.80;8.00;2.60
21358;PMS7003;13506;50.852;20.632;2023-03-08T08:12:45;6.00;5.00;1.00
21358;PMS7003;13506;50.852;20.632;2023-03-08T08:15:13;8.00;4.25;1.00
21358;PMS7003;13506;50.852;20.632;2023-03-08T08:17:42;5.00;5.00;1.50
21358;PMS7003;13506;50.852;20.632;2023-03-08T08:20:10;9.00;8.20;3.40
21358;PMS7003;13506;50.852;20.632;2023-03-08T08:22:39;6.00;6.00;1.00
21358;PMS7003;13506;50.852;20.632;2023-03-08T08:25:07;6.00;6.00;1.50
21358;PMS7003;13506;50.852;20.632;2023-03-08T08:27:37;4.40;3.80;1.00
21358;PMS7003;13506;50.852;20.632;2023-03-08T08:30:05;4.80;4.80;1.00
21358;PMS7003;13506;50.852;20.632;2023-03-08T08:32:36;4.40;4.40;1.40
21358;PMS7003;13506;50.852;20.632;2023-03-08T08:35:04;6.80;6.80;3.00
21358;PMS7003;13506;50.852;20.632;2023-03-08T08:37:33;8.40;6.40;1.40
21358;PMS7003;13506;50.852;20.632;2023-03-08T08:40:00;7.20;4.40;1.40
21358;PMS7003;13506;50.852;20.632;2023-03-08T08:42:32;6.00;6.00;2.20
21358;PMS7003;13506;50.852;20.632;2023-03-08T08:45:02;6.50;6.50;1.00
21358;PMS7003;13506;50.852;20.632;2023-03-08T08:47:31;9.50;5.00;1.00
21358;PMS7003;13506;50.852;20.632;2023-03-08T08:49:58;5.25;3.75;0.75
21358;PMS7003;13506;50.852;20.632;2023-03-08T08:52:27;8.00;7.50;1.00
21358;PMS7003;13506;50.852;20.632;2023-03-08T08:54:54;6.40;5.20;1.00
21358;PMS7003;13506;50.852;20.632;2023-03-08T08:57:23;8.20;7.20;3.00
21358;PMS7003;13506;50.852;20.632;2023-03-08T08:59:51;3.00;3.00;0.00
21358;PMS7003;13506;50.852;20.632;2023-03-08T09:02:20;7.75;7.50;1.00
21358;PMS7003;13506;50.852;20.632;2023-03-08T09:04:49;5.00;4.00;1.00
21358;PMS7003;13506;50.852;20.632;2023-03-08T09:07:17;3.00;3.00;0.00
21358;PMS7003;13506;50.852;20.632;2023-03-08T09:09:45;3.75;3.75;0.75
21358;PMS7003;13506;50.852;20.632;2023-03-08T09:12:13;3.00;3.00;0.00
21358;PMS7003;13506;50.852;20.632;2023-03-08T09:14:41;3.50;3.25;0.00
21358;PMS7003;13506;50.852;20.632;2023-03-08T09:17:09;6.75;4.00;0.75
21358;PMS7003;13506;50.852;20.632;2023-03-08T09:19:38;3.25;3.25;0.50
21358;PMS7003;13506;50.852;20.632;2023-03-08T09:22:06;3.00;3.00;0.00
21358;PMS7003;13506;50.852;20.632;2023-03-08T09:24:35;3.00;3.00;0.25
21358;PMS7003;13506;50.852;20.632;2023-03-08T09:27:03;4.00;3.00;0.00
21358;PMS7003;13506;50.852;20.632;2023-03-08T09:29:31;5.00;3.00;0.00
21358;PMS7003;13506;50.852;20.632;2023-03-08T09:32:01;3.00;3.00;0.00
21358;PMS7003;13506;50.852;20.632;2023-03-08T09:34:29;6.00;3.00;0.75
21358;PMS7003;13506;50.852;20.632;2023-03-08T09:36:59;6.00;4.00;1.00
21358;PMS7003;13506;50.852;20.632;2023-03-08T09:39:27;3.75;3.75;1.00
21358;PMS7003;13506;50.852;20.632;2023-03-08T09:41:56;6.00;4.00;0.25
21358;PMS7003;13506;50.852;20.632;2023-03-08T09:44:37;4.00;3.75;1.00
21358;PMS7003;13506;50.852;20.632;2023-03-08T09:47:37;5.50;4.00;0.00
21358;PMS7003;13506;50.852;20.632;2023-03-08T09:53:06;3.50;3.50;0.00
21358;PMS7003;13506;50.852;20.632;2023-03-08T09:55:44;3.00;3.00;0.00
21358;PMS7003;13506;50.852;20.632;2023-03-08T09:58:18;3.25;3.25;0.75
21358;PMS7003;13506;50.852;20.632;2023-03-08T10:00:57;5.00;4.00;1.00
21358;PMS7003;13506;50.852;20.632;2023-03-08T10:03:44;5.50;4.00;1.00
21358;PMS7003;13506;50.852;20.632;2023-03-08T10:06:27;6.50;4.50;1.25
21358;PMS7003;13506;50.852;20.632;2023-03-08T10:09:02;3.75;3.75;0.00
21358;PMS7003;13506;50.852;20.632;2023-03-08T10:11:42;4.50;4.50;1.00
21358;PMS7003;13506;50.852;20.632;2023-03-08T10:14:16;4.00;4.00;1.00
21358;PMS7003;13506;50.852;20.632;2023-03-08T10:16:48;4.00;4.00;1.00
21358;PMS7003;13506;50.852;20.632;2023-03-08T10:19:20;5.25;4.50;0.75
21358;PMS7003;13506;50.852;20.632;2023-03-08T10:21:53;3.75;3.50;0.50
21358;PMS7003;13506;50.852;20.632;2023-03-08T10:24:30;6.00;3.75;1.00
21358;PMS7003;13506;50.852;20.632;2023-03-08T10:27:09;3.00;3.00;0.00
21358;PMS7003;13506;50.852;20.632;2023-03-08T10:29:48;3.00;3.00;0.00
21358;PMS7003;13506;50.852;20.632;2023-03-08T10:32:17;3.25;3.25;0.25
21358;PMS7003;13506;50.852;20.632;2023-03-08T10:34:46;7.00;3.75;0.25
21358;PMS7003;13506;50.852;20.632;2023-03-08T10:37:14;4.00;4.00;0.25
21358;PMS7003;13506;50.852;20.632;2023-03-08T10:39:51;3.75;3.75;1.00
21358;PMS7003;13506;50.852;20.632;2023-03-08T10:42:20;6.00;6.00;1.00
21358;PMS7003;13506;50.852;20.632;2023-03-08T10:44:52;9.00;8.50;3.00
21358;PMS7003;13506;50.852;20.632;2023-03-08T10:47:24;12.80;10.00;3.80
21358;PMS7003;13506;50.852;20.632;2023-03-08T10:50:04;9.00;9.00;3.00
21358;PMS7003;13506;50.852;20.632;2023-03-08T10:52:38;10.00;10.00;4.80
21358;PMS7003;13506;50.852;20.632;2023-03-08T10:55:11;15.80;12.40;5.60
21358;PMS7003;13506;50.852;20.632;2023-03-08T10:57:41;12.00;12.00;4.40
21358;PMS7003;13506;50.852;20.632;2023-03-08T11:00:21;13.60;12.00;4.00
21358;PMS7003;13506;50.852;20.632;2023-03-08T11:03:09;12.80;11.60;6.00
21358;PMS7003;13506;50.852;20.632;2023-03-08T11:05:51;8.50;8.00;3.00
21358;PMS7003;13506;50.852;20.632;2023-03-08T11:08:22;9.00;9.00;2.50
21358;PMS7003;13506;50.852;20.632;2023-03-08T11:11:04;9.75;9.50;3.75
21358;PMS7003;13506;50.852;20.632;2023-03-08T11:13:36;7.20;7.20;3.00
21358;PMS7003;13506;50.852;20.632;2023-03-08T11:16:10;6.00;4.00;0.25
21358;PMS7003;13506;50.852;20.632;2023-03-08T11:18:57;6.50;6.50;2.50
21358;PMS7003;13506;50.852;20.632;2023-03-08T11:21:32;9.00;4.50;1.50
21358;PMS7003;13506;50.852;20.632;2023-03-08T11:24:22;5.00;4.00;1.00
21358;PMS7003;13506;50.852;20.632;2023-03-08T11:27:08;6.00;6.00;1.50
21358;PMS7003;13506;50.852;20.632;2023-03-08T11:29:49;11.20;9.40;3.00
21358;PMS7003;13506;50.852;20.632;2023-03-08T11:32:37;9.50;7.50;1.00
21358;PMS7003;13506;50.852;20.632;2023-03-08T11:35:21;8.00;8.00;3.00
21358;PMS7003;13506;50.852;20.632;2023-03-08T11:37:58;6.75;6.75;2.00
21358;PMS7003;13506;50.852;20.632;2023-03-08T11:40:34;14.40;10.00;4.00
21358;PMS7003;13506;50.852;20.632;2023-03-08T11:43:19;13.20;10.20;5.20
21358;PMS7003;13506;50.852;20.632;2023-03-08T11:46:01;15.00;12.00;4.00
21358;PMS7003;13506;50.852;20.632;2023-03-08T11:48:44;15.00;13.60;4.80
21358;PMS7003;13506;50.852;20.632;2023-03-08T11:51:31;10.00;9.00;3.00
21358;PMS7003;13506;50.852;20.632;2023-03-08T11:54:10;12.60;12.00;5.20
21358;PMS7003;13506;50.852;20.632;2023-03-08T11:56:46;11.40;11.40;5.60
21358;PMS7003;13506;50.852;20.632;2023-03-08T11:59:22;12.00;9.40;4.00
21358;PMS7003;13506;50.852;20.632;2023-03-08T12:01:58;13.20;11.80;6.20
21358;PMS7003;13506;50.852;20.632;2023-03-08T12:04:36;10.40;9.20;4.00
21358;PMS7003;13506;50.852;20.632;2023-03-08T12:07:09;14.00;10.00;4.00
21358;PMS7003;13506;50.852;20.632;2023-03-08T12:09:50;9.50;8.00;3.00
21358;PMS7003;13506;50.852;20.632;2023-03-08T12:12:23;10.00;9.00;4.00
21358;PMS7003;13506;50.852;20.632;2023-03-08T12:14:58;13.80;11.80;4.00
21358;PMS7003;13506;50.852;20.632;2023-03-08T12:17:34;8.80;8.80;3.40
21358;PMS7003;13506;50.852;20.632;2023-03-08T12:20:04;9.00;8.80;4.00
21358;PMS7003;13506;50.852;20.632;2023-03-08T12:22:41;10.20;8.40;3.80
21358;PMS7003;13506;50.852;20.632;2023-03-08T12:25:15;16.40;11.80;6.00
21358;PMS7003;13506;50.852;20.632;2023-03-08T12:27:51;12.40;11.00;5.20
21358;PMS7003;13506;50.852;20.632;2023-03-08T12:30:32;11.00;10.60;4.00
21358;PMS7003;13506;50.852;20.632;2023-03-08T12:33:09;12.80;11.40;4.00
21358;PMS7003;13506;50.852;20.632;2023-03-08T12:35:48;9.40;7.40;3.80
21358;PMS7003;13506;50.852;20.632;2023-03-08T12:38:28;11.60;10.60;3.60
21358;PMS7003;13506;50.852;20.632;2023-03-08T12:41:02;14.80;11.00;5.20
21358;PMS7003;13506;50.852;20.632;2023-03-08T12:43:33;14.40;14.20;6.60
21358;PMS7003;13506;50.852;20.632;2023-03-08T12:46:05;9.80;9.20;4.00
21358;PMS7003;13506;50.852;20.632;2023-03-08T12:48:36;13.00;8.80;3.80
21358;PMS7003;13506;50.852;20.632;2023-03-08T12:51:18;10.20;10.20;4.00
21358;PMS7003;13506;50.852;20.632;2023-03-08T12:53:57;12.00;10.80;4.00
21358;PMS7003;13506;50.852;20.632;2023-03-08T12:56:28;14.60;12.80;6.00
21358;PMS7003;13506;50.852;20.632;2023-03-08T12:59:00;12.80;11.40;4.40
21358;PMS7003;13506;50.852;20.632;2023-03-08T13:01:35;21.00;18.40;7.20
21358;PMS7003;13506;50.852;20.632;2023-03-08T13:04:06;17.40;15.80;8.00
21358;PMS7003;13506;50.852;20.632;2023-03-08T13:07:16;14.00;11.80;6.00
21358;PMS7003;13506;50.852;20.632;2023-03-08T13:09:53;15.20;11.20;3.60
21358;PMS7003;13506;50.852;20.632;2023-03-08T13:12:34;12.80;12.80;6.00
21358;PMS7003;13506;50.852;20.632;2023-03-08T13:15:23;12.80;11.20;4.00
21358;PMS7003;13506;50.852;20.632;2023-03-08T13:17:57;14.00;10.00;3.60
21358;PMS7003;13506;50.852;20.632;2023-03-08T13:20:32;10.50;7.00;4.00
21358;PMS7003;13506;50.852;20.632;2023-03-08T13:23:31;8.20;7.00;3.00
21358;PMS7003;13506;50.852;20.632;2023-03-08T13:28:57;11.20;9.00;4.00
21358;PMS7003;13506;50.852;20.632;2023-03-08T13:31:26;8.80;7.00;3.00
21358;PMS7003;13506;50.852;20.632;2023-03-08T13:33:58;7.50;7.00;3.75
21358;PMS7003;13506;50.852;20.632;2023-03-08T13:36:27;7.00;7.00;3.00
21358;PMS7003;13506;50.852;20.632;2023-03-08T13:38:57;9.00;7.00;3.00
21358;PMS7003;13506;50.852;20.632;2023-03-08T13:41:32;7.00;7.00;1.00
21358;PMS7003;13506;50.852;20.632;2023-03-08T13:44:02;10.00;7.50;3.25
21358;PMS7003;13506;50.852;20.632;2023-03-08T13:46:31;8.75;7.00;3.75
21358;PMS7003;13506;50.852;20.632;2023-03-08T13:49:08;9.00;9.00;3.00
21358;PMS7003;13506;50.852;20.632;2023-03-08T13:51:41;9.75;9.50;3.50
21358;PMS7003;13506;50.852;20.632;2023-03-08T13:54:11;6.75;6.75;3.00
21358;PMS7003;13506;50.852;20.632;2023-03-08T13:56:42;6.50;6.50;3.00
21358;PMS7003;13506;50.852;20.632;2023-03-08T13:59:15;13.00;7.00;3.00
21358;PMS7003;13506;50.852;20.632;2023-03-08T14:01:45;11.50;9.75;4.25
21358;PMS7003;13506;50.852;20.632;2023-03-08T14:04:17;14.20;12.00;6.00
21358;PMS7003;13506;50.852;20.632;2023-03-08T14:06:48;14.20;11.80;5.20
21358;PMS7003;13506;50.852;20.632;2023-03-08T14:09:18;10.00;10.00;4.00
21358;PMS7003;13506;50.852;20.632;2023-03-08T14:11:52;9.40;9.40;4.00
21358;PMS7003;13506;50.852;20.632;2023-03-08T14:14:26;9.50;9.00;4.00
21358;PMS7003;13506;50.852;20.632;2023-03-08T14:16:57;9.00;9.00;4.00
21358;PMS7003;13506;50.852;20.632;2023-03-08T14:19:28;11.40;9.80;4.00
21358;PMS7003;13506;50.852;20.632;2023-03-08T14:22:08;17.60;14.80;6.60
21358;PMS7003;13506;50.852;20.632;2023-03-08T14:24:40;12.80;12.00;6.00
21358;PMS7003;13506;50.852;20.632;2023-03-08T14:27:31;11.80;9.60;4.00